createdAt,value
2022-09-17T00:04:26.396Z,73.2
2022-09-17T00:10:02.590Z,73.3
2022-09-17T00:15:38.137Z,73.4
2022-09-17T00:21:13.558Z,73.5
2022-09-17T00:26:48.683Z,73.5
2022-09-17T00:32:46.166Z,73.6
2022-09-17T00:38:19.718Z,73.8
2022-09-17T00:43:55.163Z,73.9
2022-09-17T00:49:30.706Z,74
2022-09-17T00:55:05.538Z,74.1
2022-09-17T01:00:41.934Z,74.2
2022-09-17T01:06:19.873Z,74.3
2022-09-17T01:11:55.059Z,74.5
2022-09-17T01:17:30.424Z,74.5
2022-09-17T01:23:06.272Z,74.7
2022-09-17T01:28:41.097Z,74.7
2022-09-17T01:34:38.434Z,74.7
2022-09-17T01:40:13.523Z,74.8
2022-09-17T01:45:48.837Z,74.9
2022-09-17T01:51:24.219Z,75
2022-09-17T01:56:59.475Z,75
2022-09-17T02:02:34.255Z,74.9
2022-09-17T02:08:10.652Z,74.8
2022-09-17T02:13:47.103Z,74.9
2022-09-17T02:19:21.952Z,75
2022-09-17T02:24:57.323Z,75.1
2022-09-17T02:30:32.920Z,75.2
2022-09-17T02:36:07.988Z,75.1
2022-09-17T02:41:44.052Z,75
2022-09-17T02:47:19.704Z,74.8
2022-09-17T02:52:54.768Z,74.8
2022-09-17T02:58:29.833Z,74.8
2022-09-17T03:04:05.435Z,74.7
2022-09-17T03:09:40.184Z,74.7
2022-09-17T03:15:15.309Z,74.7
2022-09-17T03:20:50.863Z,74.6
2022-09-17T03:26:26.691Z,74.7
2022-09-17T03:32:23.737Z,74.9
2022-09-17T03:37:56.847Z,75.1
2022-09-17T03:43:31.467Z,75.2
2022-09-17T03:49:06.767Z,75.2
2022-09-17T03:54:43.614Z,75.2
2022-09-17T04:00:18.298Z,75
2022-09-17T04:05:53.474Z,74.8
2022-09-17T04:11:29.640Z,74.8
2022-09-17T04:17:05.359Z,75
2022-09-17T04:22:41.717Z,75.1
2022-09-17T04:28:16.980Z,75.3
2022-09-17T04:34:13.556Z,75.1
2022-09-17T04:39:46.963Z,75.2
2022-09-17T04:45:23.298Z,75.2
2022-09-17T04:50:58.054Z,75.3
2022-09-17T04:56:33.360Z,75.1
2022-09-17T05:02:09.746Z,74.9
2022-09-17T05:07:45.655Z,74.7
2022-09-17T05:13:21.918Z,74.6
2022-09-17T05:18:57.468Z,74.5
2022-09-17T05:24:32.627Z,74.4
2022-09-17T05:30:08.017Z,74.4
2022-09-17T05:35:43.819Z,74.4
2022-09-17T05:41:18.692Z,74.9
2022-09-17T05:46:53.857Z,79.1
2022-09-17T05:52:31.594Z,80.5
2022-09-17T05:58:06.490Z,81.4
2022-09-17T06:03:42.052Z,81.7
2022-09-17T06:09:18.465Z,81.8
2022-09-17T06:14:54.302Z,82.4
2022-09-17T06:20:29.695Z,83
2022-09-17T06:26:05.848Z,83.5
2022-09-17T06:32:02.792Z,83.2
2022-09-17T06:37:36.566Z,83.4
2022-09-17T06:43:12.162Z,83.3
2022-09-17T06:48:47.227Z,83.4
2022-09-17T06:54:22.666Z,83.5
2022-09-17T06:59:58.954Z,83.7
2022-09-17T07:05:34.020Z,83.4
2022-09-17T07:11:09.063Z,83.3
2022-09-17T07:16:45.025Z,84.1
2022-09-17T07:22:21.870Z,83.9
2022-09-17T07:27:57.309Z,84.7
2022-09-17T07:33:54.298Z,84.4
2022-09-17T07:39:28.014Z,83.5
2022-09-17T07:45:03.480Z,83.3
2022-09-17T07:50:39.028Z,82.3
2022-09-17T07:56:14.192Z,79.8
2022-09-17T08:01:50.874Z,78.7
2022-09-17T08:07:28.203Z,77.1
2022-09-17T08:13:03.026Z,77.1
2022-09-17T08:18:38.433Z,76
2022-09-17T08:24:13.726Z,74.8
2022-09-17T08:29:48.546Z,73.4
2022-09-17T08:35:23.915Z,76
2022-09-17T08:40:59.733Z,76.3
2022-09-17T08:46:34.736Z,75.9
2022-09-17T08:52:11.140Z,75.9
2022-09-17T08:57:46.810Z,75.2
2022-09-17T09:03:21.644Z,74.2
2022-09-17T09:08:58.286Z,72
2022-09-17T09:14:34.111Z,72.6
2022-09-17T09:20:09.991Z,70.1
2022-09-17T09:25:45.275Z,68.5
2022-09-17T09:31:42.998Z,67.8
2022-09-17T09:37:16.247Z,66.5
2022-09-17T09:42:51.239Z,65.3
2022-09-17T09:48:26.905Z,66.7
2022-09-17T09:54:01.944Z,65.4
2022-09-17T09:59:37.333Z,64.8
2022-09-17T10:05:13.119Z,65.9
2022-09-17T10:10:48.981Z,64.9
2022-09-17T10:16:24.549Z,62.1
2022-09-17T10:22:01.351Z,61.1
2022-09-17T10:27:36.352Z,61.3
2022-09-17T10:33:33.482Z,55.8
2022-09-17T10:39:06.746Z,55.9
2022-09-17T10:44:41.622Z,52.3
2022-09-17T10:50:17.162Z,50.1
2022-09-17T10:55:54.290Z,51.6
2022-09-17T11:01:29.851Z,52
2022-09-17T11:07:06.292Z,50.3
2022-09-17T11:12:42.480Z,51.6
2022-09-17T11:18:17.254Z,53
2022-09-17T11:23:52.410Z,51.5
2022-09-17T11:29:28.243Z,51.7
2022-09-17T11:35:03.097Z,52.6
2022-09-17T11:40:40.843Z,50.5
2022-09-17T11:46:19.694Z,46.7
2022-09-17T11:51:58.030Z,47.3
2022-09-17T11:57:34.415Z,46.9
2022-09-17T12:03:10.405Z,43.9
2022-09-17T12:08:46.155Z,45.5
2022-09-17T12:14:22.356Z,44.3
2022-09-17T12:19:58.206Z,46.5
2022-09-17T12:25:33.162Z,48.3
2022-09-17T12:31:09.081Z,45
2022-09-17T12:36:45.876Z,45
2022-09-17T12:42:21.308Z,44.1
2022-09-17T12:47:57.316Z,40.1
2022-09-17T12:53:32.837Z,42.2
2022-09-17T12:59:07.709Z,41.6
2022-09-17T13:05:02.257Z,38
2022-09-17T13:10:39.644Z,37.4
2022-09-17T13:16:19.876Z,34.4
2022-09-17T13:21:56.550Z,24
2022-09-17T13:27:33.926Z,18.7
2022-09-17T13:33:08.854Z,18.4
2022-09-17T13:38:44.177Z,19.7
2022-09-17T13:44:19.975Z,30.6
2022-09-17T13:49:56.356Z,34.6
2022-09-17T13:55:31.806Z,35.8
2022-09-17T14:01:07.907Z,37
2022-09-17T14:06:43.462Z,38.1
2022-09-17T14:12:20.050Z,37.7
2022-09-17T14:17:55.962Z,37.7
2022-09-17T14:23:34.766Z,36.9
2022-09-17T14:29:11.061Z,37
2022-09-17T14:34:47.823Z,37
2022-09-17T14:40:23.558Z,37.6
2022-09-17T14:46:01.454Z,37.1
2022-09-17T14:51:37.207Z,36.6
2022-09-17T14:57:12.121Z,37
2022-09-17T15:02:47.902Z,36.6
2022-09-17T15:08:24.735Z,38
2022-09-17T15:13:59.566Z,37.9
2022-09-17T15:19:35.184Z,37.4
2022-09-17T15:25:17.881Z,40.3
2022-09-17T15:30:52.651Z,40.9
2022-09-17T15:36:27.743Z,41.5
2022-09-17T15:42:04.101Z,40.8
2022-09-17T15:47:39.392Z,44.6
2022-09-17T15:53:14.759Z,39.1
2022-09-17T15:58:50.615Z,39
2022-09-17T16:04:25.881Z,39.4
2022-09-17T16:10:00.869Z,38.4
2022-09-17T16:15:37.321Z,41.4
2022-09-17T16:21:13.066Z,40.4
2022-09-17T16:26:48.182Z,41.3
2022-09-17T16:32:24.950Z,42.1
2022-09-17T16:37:59.555Z,41.6
2022-09-17T16:43:35.806Z,41.5
2022-09-17T16:49:11.353Z,42.5
2022-09-17T16:54:46.270Z,43.4
2022-09-17T17:00:21.592Z,44
2022-09-17T17:05:56.901Z,43
2022-09-17T17:11:32.786Z,43.2
2022-09-17T17:17:07.997Z,47.2
2022-09-17T17:22:44.538Z,47.6
2022-09-17T17:28:19.202Z,47.1
2022-09-17T17:33:54.420Z,43.7
2022-09-17T17:39:31.761Z,44.7
2022-09-17T17:45:06.647Z,45.2
2022-09-17T17:50:42.022Z,46.5
2022-09-17T17:56:17.293Z,46.3
2022-09-17T18:01:52.694Z,48.5
2022-09-17T18:07:30.278Z,49.9
2022-09-17T18:13:05.953Z,48.1
2022-09-17T18:18:45.288Z,48.9
2022-09-17T18:24:20.988Z,50.6
2022-09-17T18:29:57.059Z,49.7
2022-09-17T18:35:31.749Z,50.3
2022-09-17T18:41:07.084Z,51.5
2022-09-17T18:46:43.086Z,52.1
2022-09-17T18:52:18.709Z,52.5
2022-09-17T18:57:54.091Z,54.6
2022-09-17T19:03:29.685Z,54
2022-09-17T19:09:05.087Z,50.2
2022-09-17T19:14:40.196Z,50
2022-09-17T19:20:15.743Z,50.1
2022-09-17T19:25:51.825Z,49
2022-09-17T19:31:27.571Z,48.1
2022-09-17T19:37:04.341Z,47
2022-09-17T19:42:39.190Z,47
2022-09-17T19:48:15.452Z,47.4
2022-09-17T19:53:50.786Z,47.1
2022-09-17T19:59:26.678Z,46.9
2022-09-17T20:05:02.171Z,46.8
2022-09-17T20:10:37.669Z,46.3
2022-09-17T20:16:13.654Z,47
2022-09-17T20:21:50.098Z,48.3
2022-09-17T20:27:26.882Z,47.6
2022-09-17T20:33:08.563Z,46.8
2022-09-17T20:39:14.561Z,49.2
2022-09-17T20:45:01.627Z,47.3
2022-09-17T20:50:36.580Z,46.1
2022-09-17T20:56:11.974Z,46.5
2022-09-17T21:01:48.069Z,51.2
2022-09-17T21:07:23.354Z,48
2022-09-17T21:12:59.077Z,46.7
2022-09-17T21:18:39.983Z,46.9
2022-09-17T21:24:14.900Z,46.6
2022-09-17T21:29:50.093Z,46.7
2022-09-17T21:35:26.871Z,46.8
2022-09-17T21:41:09.635Z,47.1
2022-09-17T21:46:44.817Z,47.3
2022-09-17T21:52:21.981Z,47.4
2022-09-17T21:57:56.752Z,47.4
2022-09-17T22:03:33.042Z,47.4
2022-09-17T22:09:08.560Z,47.5
2022-09-17T22:14:43.600Z,47.9
2022-09-17T22:20:19.443Z,48.1
2022-09-17T22:25:54.942Z,48.2
2022-09-17T22:31:52.069Z,48.1
2022-09-17T22:37:25.312Z,48.1
2022-09-17T22:43:00.859Z,48.3
2022-09-17T22:48:35.603Z,48.5
2022-09-17T22:54:11.721Z,48.6
2022-09-17T22:59:48.914Z,48.9
2022-09-17T23:05:23.951Z,49.1
2022-09-17T23:10:59.641Z,49.6
2022-09-17T23:16:36.072Z,50.2
2022-09-17T23:22:10.737Z,50.9
2022-09-17T23:27:46.359Z,51.6
2022-09-17T23:33:44.029Z,52.2
2022-09-17T23:39:16.522Z,52.3
2022-09-17T23:44:52.715Z,52.2
2022-09-17T23:50:28.578Z,52.1
2022-09-17T23:56:03.263Z,51.9
